sensor_id;sensor_type;location;lat;lon;timestamp;P1;durP1;ratioP1;P2;durP2;ratioP2
26223;SDS011;14820;48.682;8.890;2023-03-16T00:01:18;10.20;;;5.60;;
26223;SDS011;14820;48.682;8.890;2023-03-16T00:03:43;12.50;;;5.68;;
26223;SDS011;14820;48.682;8.890;2023-03-16T00:06:09;13.85;;;6.22;;
26223;SDS011;14820;48.682;8.890;2023-03-16T00:08:35;10.57;;;5.28;;
26223;SDS011;14820;48.682;8.890;2023-03-16T00:11:02;9.00;;;5.40;;
26223;SDS011;14820;48.682;8.890;2023-03-16T00:13:28;10.60;;;5.80;;
26223;SDS011;14820;48.682;8.890;2023-03-16T00:15:55;12.30;;;6.05;;
26223;SDS011;14820;48.682;8.890;2023-03-16T00:18:23;11.20;;;5.97;;
26223;SDS011;14820;48.682;8.890;2023-03-16T00:20:54;11.77;;;6.10;;
26223;SDS011;14820;48.682;8.890;2023-03-16T00:23:22;9.43;;;5.28;;
26223;SDS011;14820;48.682;8.890;2023-03-16T00:25:52;12.13;;;5.90;;
26223;SDS011;14820;48.682;8.890;2023-03-16T00:28:19;9.27;;;5.63;;
26223;SDS011;14820;48.682;8.890;2023-03-16T00:30:45;14.23;;;5.65;;
26223;SDS011;14820;48.682;8.890;2023-03-16T00:33:11;10.32;;;6.00;;
26223;SDS011;14820;48.682;8.890;2023-03-16T00:35:37;9.68;;;5.93;;
26223;SDS011;14820;48.682;8.890;2023-03-16T00:38:03;12.98;;;5.60;;
26223;SDS011;14820;48.682;8.890;2023-03-16T00:40:28;10.77;;;5.80;;
26223;SDS011;14820;48.682;8.890;2023-03-16T00:42:55;11.35;;;5.47;;
26223;SDS011;14820;48.682;8.890;2023-03-16T00:45:20;10.07;;;6.03;;
26223;SDS011;14820;48.682;8.890;2023-03-16T00:47:47;9.25;;;5.45;;
26223;SDS011;14820;48.682;8.890;2023-03-16T00:50:13;9.93;;;5.55;;
26223;SDS011;14820;48.682;8.890;2023-03-16T00:52:39;10.90;;;5.90;;
26223;SDS011;14820;48.682;8.890;2023-03-16T00:55:06;11.45;;;5.95;;
26223;SDS011;14820;48.682;8.890;2023-03-16T00:57:32;16.38;;;5.50;;
26223;SDS011;14820;48.682;8.890;2023-03-16T00:59:58;10.43;;;6.05;;
26223;SDS011;14820;48.682;8.890;2023-03-16T01:02:26;9.02;;;5.50;;
26223;SDS011;14820;48.682;8.890;2023-03-16T01:04:52;8.20;;;5.40;;
26223;SDS011;14820;48.682;8.890;2023-03-16T01:07:18;15.25;;;6.32;;
26223;SDS011;14820;48.682;8.890;2023-03-16T01:09:46;10.00;;;5.25;;
26223;SDS011;14820;48.682;8.890;2023-03-16T01:12:13;11.60;;;5.63;;
26223;SDS011;14820;48.682;8.890;2023-03-16T01:14:41;8.98;;;5.28;;
26223;SDS011;14820;48.682;8.890;2023-03-16T01:17:10;9.15;;;5.43;;
26223;SDS011;14820;48.682;8.890;2023-03-16T01:19:38;8.13;;;4.97;;
26223;SDS011;14820;48.682;8.890;2023-03-16T01:22:05;10.57;;;5.35;;
26223;SDS011;14820;48.682;8.890;2023-03-16T01:24:33;11.18;;;5.38;;
26223;SDS011;14820;48.682;8.890;2023-03-16T01:27:00;9.98;;;5.40;;
26223;SDS011;14820;48.682;8.890;2023-03-16T01:29:26;10.63;;;5.38;;
26223;SDS011;14820;48.682;8.890;2023-03-16T01:31:52;10.93;;;5.53;;
26223;SDS011;14820;48.682;8.890;2023-03-16T01:34:18;10.82;;;5.93;;
26223;SDS011;14820;48.682;8.890;2023-03-16T01:36:46;8.18;;;5.45;;
26223;SDS011;14820;48.682;8.890;2023-03-16T01:39:13;6.70;;;4.95;;
26223;SDS011;14820;48.682;8.890;2023-03-16T01:41:40;9.70;;;4.93;;
26223;SDS011;14820;48.682;8.890;2023-03-16T01:44:15;9.10;;;5.50;;
26223;SDS011;14820;48.682;8.890;2023-03-16T01:46:41;15.25;;;7.20;;
26223;SDS011;14820;48.682;8.890;2023-03-16T01:49:09;23.75;;;11.88;;
26223;SDS011;14820;48.682;8.890;2023-03-16T01:56:41;33.80;;;15.90;;
26223;SDS011;14820;48.682;8.890;2023-03-16T01:59:15;35.53;;;13.25;;
26223;SDS011;14820;48.682;8.890;2023-03-16T02:01:42;39.83;;;15.82;;
26223;SDS011;14820;48.682;8.890;2023-03-16T02:04:12;14.45;;;8.02;;
26223;SDS011;14820;48.682;8.890;2023-03-16T02:06:41;9.00;;;5.35;;
26223;SDS011;14820;48.682;8.890;2023-03-16T02:09:08;9.70;;;5.18;;
26223;SDS011;14820;48.682;8.890;2023-03-16T02:11:35;26.25;;;12.35;;
26223;SDS011;14820;48.682;8.890;2023-03-16T02:14:02;25.30;;;12.63;;
26223;SDS011;14820;48.682;8.890;2023-03-16T02:16:31;43.88;;;18.23;;
26223;SDS011;14820;48.682;8.890;2023-03-16T02:18:57;25.10;;;13.13;;
26223;SDS011;14820;48.682;8.890;2023-03-16T02:21:27;23.23;;;11.45;;
26223;SDS011;14820;48.682;8.890;2023-03-16T02:24:05;21.15;;;10.65;;
26223;SDS011;14820;48.682;8.890;2023-03-16T02:26:48;17.63;;;8.68;;
26223;SDS011;14820;48.682;8.890;2023-03-16T02:32:20;20.58;;;9.38;;
26223;SDS011;14820;48.682;8.890;2023-03-16T02:34:48;15.90;;;7.03;;
26223;SDS011;14820;48.682;8.890;2023-03-16T02:37:13;8.15;;;5.25;;
26223;SDS011;14820;48.682;8.890;2023-03-16T02:39:39;10.98;;;6.18;;
26223;SDS011;14820;48.682;8.890;2023-03-16T02:42:09;13.18;;;5.70;;
26223;SDS011;14820;48.682;8.890;2023-03-16T02:44:39;11.85;;;5.78;;
26223;SDS011;14820;48.682;8.890;2023-03-16T02:47:10;16.55;;;6.38;;
26223;SDS011;14820;48.682;8.890;2023-03-16T02:52:09;10.88;;;6.15;;
26223;SDS011;14820;48.682;8.890;2023-03-16T02:54:36;9.57;;;5.82;;
26223;SDS011;14820;48.682;8.890;2023-03-16T02:57:02;10.93;;;6.78;;
26223;SDS011;14820;48.682;8.890;2023-03-16T02:59:29;13.27;;;8.45;;
26223;SDS011;14820;48.682;8.890;2023-03-16T03:01:55;9.00;;;6.20;;
26223;SDS011;14820;48.682;8.890;2023-03-16T03:04:21;11.55;;;6.18;;
26223;SDS011;14820;48.682;8.890;2023-03-16T03:06:48;11.05;;;6.13;;
26223;SDS011;14820;48.682;8.890;2023-03-16T03:09:15;10.63;;;5.93;;
26223;SDS011;14820;48.682;8.890;2023-03-16T03:11:42;10.38;;;5.70;;
26223;SDS011;14820;48.682;8.890;2023-03-16T03:14:08;11.30;;;6.15;;
26223;SDS011;14820;48.682;8.890;2023-03-16T03:16:34;10.90;;;6.60;;
26223;SDS011;14820;48.682;8.890;2023-03-16T03:19:00;14.68;;;7.20;;
26223;SDS011;14820;48.682;8.890;2023-03-16T03:21:26;14.13;;;7.18;;
26223;SDS011;14820;48.682;8.890;2023-03-16T03:23:52;13.57;;;8.30;;
26223;SDS011;14820;48.682;8.890;2023-03-16T03:26:18;17.80;;;10.02;;
26223;SDS011;14820;48.682;8.890;2023-03-16T03:28:45;20.42;;;9.18;;
26223;SDS011;14820;48.682;8.890;2023-03-16T03:31:14;16.08;;;8.20;;
26223;SDS011;14820;48.682;8.890;2023-03-16T03:33:41;36.22;;;10.48;;
26223;SDS011;14820;48.682;8.890;2023-03-16T03:36:08;36.55;;;11.93;;
26223;SDS011;14820;48.682;8.890;2023-03-16T03:38:35;19.85;;;7.60;;
26223;SDS011;14820;48.682;8.890;2023-03-16T03:41:01;13.93;;;6.65;;
26223;SDS011;14820;48.682;8.890;2023-03-16T03:43:27;13.35;;;6.95;;
26223;SDS011;14820;48.682;8.890;2023-03-16T03:45:56;16.88;;;10.25;;
26223;SDS011;14820;48.682;8.890;2023-03-16T03:48:23;18.15;;;10.85;;
26223;SDS011;14820;48.682;8.890;2023-03-16T03:50:49;15.40;;;7.25;;
26223;SDS011;14820;48.682;8.890;2023-03-16T03:53:15;15.77;;;8.80;;
26223;SDS011;14820;48.682;8.890;2023-03-16T03:55:41;16.70;;;10.13;;
26223;SDS011;14820;48.682;8.890;2023-03-16T03:58:07;23.60;;;9.70;;
26223;SDS011;14820;48.682;8.890;2023-03-16T04:00:33;17.77;;;9.85;;
26223;SDS011;14820;48.682;8.890;2023-03-16T04:02:59;17.17;;;8.48;;
26223;SDS011;14820;48.682;8.890;2023-03-16T04:05:25;17.20;;;8.50;;
26223;SDS011;14820;48.682;8.890;2023-03-16T04:07:52;16.50;;;8.57;;
26223;SDS011;14820;48.682;8.890;2023-03-16T04:10:21;15.48;;;7.65;;
26223;SDS011;14820;48.682;8.890;2023-03-16T04:12:51;14.82;;;7.88;;
26223;SDS011;14820;48.682;8.890;2023-03-16T04:15:16;12.45;;;7.05;;
26223;SDS011;14820;48.682;8.890;2023-03-16T04:17:42;19.02;;;8.25;;
26223;SDS011;14820;48.682;8.890;2023-03-16T04:20:08;14.43;;;8.70;;
26223;SDS011;14820;48.682;8.890;2023-03-16T04:22:42;17.27;;;9.65;;
26223;SDS011;14820;48.682;8.890;2023-03-16T04:25:08;18.15;;;9.25;;
26223;SDS011;14820;48.682;8.890;2023-03-16T04:27:35;21.55;;;10.15;;
26223;SDS011;14820;48.682;8.890;2023-03-16T04:30:02;19.60;;;10.30;;
26223;SDS011;14820;48.682;8.890;2023-03-16T04:32:29;22.77;;;10.15;;
26223;SDS011;14820;48.682;8.890;2023-03-16T04:34:55;24.63;;;10.77;;
26223;SDS011;14820;48.682;8.890;2023-03-16T04:37:21;20.17;;;10.05;;
26223;SDS011;14820;48.682;8.890;2023-03-16T04:39:47;24.27;;;10.45;;
26223;SDS011;14820;48.682;8.890;2023-03-16T04:42:13;23.08;;;10.30;;
26223;SDS011;14820;48.682;8.890;2023-03-16T04:44:38;20.65;;;9.90;;
26223;SDS011;14820;48.682;8.890;2023-03-16T04:47:11;22.80;;;9.80;;
26223;SDS011;14820;48.682;8.890;2023-03-16T04:49:38;18.55;;;9.32;;
26223;SDS011;14820;48.682;8.890;2023-03-16T04:52:04;17.65;;;9.25;;
26223;SDS011;14820;48.682;8.890;2023-03-16T04:54:31;18.25;;;9.82;;
26223;SDS011;14820;48.682;8.890;2023-03-16T04:56:57;20.45;;;9.70;;
26223;SDS011;14820;48.682;8.890;2023-03-16T04:59:24;15.77;;;8.95;;
26223;SDS011;14820;48.682;8.890;2023-03-16T05:01:50;15.25;;;8.75;;
26223;SDS011;14820;48.682;8.890;2023-03-16T05:04:16;21.13;;;9.93;;
26223;SDS011;14820;48.682;8.890;2023-03-16T05:06:42;19.20;;;9.93;;
26223;SDS011;14820;48.682;8.890;2023-03-16T05:09:08;19.27;;;10.30;;
26223;SDS011;14820;48.682;8.890;2023-03-16T05:11:34;19.10;;;9.63;;
26223;SDS011;14820;48.682;8.890;2023-03-16T05:14:00;16.33;;;9.50;;
26223;SDS011;14820;48.682;8.890;2023-03-16T05:16:26;19.17;;;9.65;;
26223;SDS011;14820;48.682;8.890;2023-03-16T05:18:56;16.67;;;9.80;;
26223;SDS011;14820;48.682;8.890;2023-03-16T05:21:22;20.67;;;11.07;;
26223;SDS011;14820;48.682;8.890;2023-03-16T05:23:48;20.90;;;11.10;;
26223;SDS011;14820;48.682;8.890;2023-03-16T05:26:14;18.13;;;10.82;;
26223;SDS011;14820;48.682;8.890;2023-03-16T05:28:40;22.15;;;10.90;;
26223;SDS011;14820;48.682;8.890;2023-03-16T05:31:06;19.83;;;10.95;;
26223;SDS011;14820;48.682;8.890;2023-03-16T05:33:32;23.88;;;10.98;;
26223;SDS011;14820;48.682;8.890;2023-03-16T05:35:58;19.33;;;10.68;;
26223;SDS011;14820;48.682;8.890;2023-03-16T05:38:24;17.60;;;10.00;;
26223;SDS011;14820;48.682;8.890;2023-03-16T05:40:51;20.50;;;10.95;;
26223;SDS011;14820;48.682;8.890;2023-03-16T05:43:18;19.23;;;10.80;;
26223;SDS011;14820;48.682;8.890;2023-03-16T05:45:45;17.58;;;10.00;;
26223;SDS011;14820;48.682;8.890;2023-03-16T05:48:11;21.65;;;9.82;;
26223;SDS011;14820;48.682;8.890;2023-03-16T05:50:39;19.65;;;10.73;;
26223;SDS011;14820;48.682;8.890;2023-03-16T05:53:05;16.05;;;9.57;;
26223;SDS011;14820;48.682;8.890;2023-03-16T05:55:32;21.60;;;10.50;;
26223;SDS011;14820;48.682;8.890;2023-03-16T05:57:58;16.38;;;10.05;;
26223;SDS011;14820;48.682;8.890;2023-03-16T06:00:24;19.63;;;9.90;;
26223;SDS011;14820;48.682;8.890;2023-03-16T06:02:51;20.33;;;10.98;;
26223;SDS011;14820;48.682;8.890;2023-03-16T06:05:18;19.70;;;10.20;;
26223;SDS011;14820;48.682;8.890;2023-03-16T06:07:45;17.73;;;9.90;;
26223;SDS011;14820;48.682;8.890;2023-03-16T06:10:12;17.08;;;9.15;;
26223;SDS011;14820;48.682;8.890;2023-03-16T06:12:38;23.92;;;11.70;;
26223;SDS011;14820;48.682;8.890;2023-03-16T06:15:05;32.67;;;16.00;;
26223;SDS011;14820;48.682;8.890;2023-03-16T06:17:33;25.88;;;14.50;;
26223;SDS011;14820;48.682;8.890;2023-03-16T06:19:59;26.30;;;13.35;;
26223;SDS011;14820;48.682;8.890;2023-03-16T06:22:25;23.35;;;11.15;;
26223;SDS011;14820;48.682;8.890;2023-03-16T06:24:51;20.98;;;11.82;;
26223;SDS011;14820;48.682;8.890;2023-03-16T06:27:18;23.77;;;11.35;;
26223;SDS011;14820;48.682;8.890;2023-03-16T06:29:44;16.98;;;10.48;;
26223;SDS011;14820;48.682;8.890;2023-03-16T06:32:11;22.27;;;11.40;;
26223;SDS011;14820;48.682;8.890;2023-03-16T06:34:37;22.05;;;12.45;;
26223;SDS011;14820;48.682;8.890;2023-03-16T06:37:03;22.95;;;13.93;;
26223;SDS011;14820;48.682;8.890;2023-03-16T06:39:29;27.33;;;13.95;;
26223;SDS011;14820;48.682;8.890;2023-03-16T06:41:55;23.10;;;13.35;;
26223;SDS011;14820;48.682;8.890;2023-03-16T06:44:21;20.80;;;11.57;;
26223;SDS011;14820;48.682;8.890;2023-03-16T06:46:47;19.27;;;11.73;;
26223;SDS011;14820;48.682;8.890;2023-03-16T06:49:12;16.58;;;10.18;;
26223;SDS011;14820;48.682;8.890;2023-03-16T06:51:38;18.38;;;11.15;;
26223;SDS011;14820;48.682;8.890;2023-03-16T06:54:04;19.95;;;11.23;;
26223;SDS011;14820;48.682;8.890;2023-03-16T06:56:29;16.17;;;9.52;;
26223;SDS011;14820;48.682;8.890;2023-03-16T06:58:56;16.58;;;9.93;;
26223;SDS011;14820;48.682;8.890;2023-03-16T07:01:22;15.50;;;9.75;;
26223;SDS011;14820;48.682;8.890;2023-03-16T07:03:48;17.63;;;10.25;;
26223;SDS011;14820;48.682;8.890;2023-03-16T07:06:14;16.48;;;10.10;;
26223;SDS011;14820;48.682;8.890;2023-03-16T07:08:40;15.05;;;8.82;;
26223;SDS011;14820;48.682;8.890;2023-03-16T07:11:06;13.98;;;9.32;;
26223;SDS011;14820;48.682;8.890;2023-03-16T07:13:33;14.93;;;9.60;;
26223;SDS011;14820;48.682;8.890;2023-03-16T07:15:59;16.55;;;10.10;;
26223;SDS011;14820;48.682;8.890;2023-03-16T07:18:25;16.95;;;9.40;;
26223;SDS011;14820;48.682;8.890;2023-03-16T07:20:52;14.00;;;8.73;;
26223;SDS011;14820;48.682;8.890;2023-03-16T07:23:18;12.88;;;8.60;;
26223;SDS011;14820;48.682;8.890;2023-03-16T07:25:44;15.13;;;9.43;;
26223;SDS011;14820;48.682;8.890;2023-03-16T07:28:10;14.25;;;9.77;;
26223;SDS011;14820;48.682;8.890;2023-03-16T07:30:36;14.02;;;9.40;;
26223;SDS011;14820;48.682;8.890;2023-03-16T07:33:02;13.90;;;9.10;;
26223;SDS011;14820;48.682;8.890;2023-03-16T07:35:29;18.42;;;10.05;;
26223;SDS011;14820;48.682;8.890;2023-03-16T07:37:55;14.75;;;9.73;;
26223;SDS011;14820;48.682;8.890;2023-03-16T07:40:21;17.48;;;9.93;;
26223;SDS011;14820;48.682;8.890;2023-03-16T07:42:50;14.40;;;9.98;;
26223;SDS011;14820;48.682;8.890;2023-03-16T07:45:15;18.08;;;10.68;;
26223;SDS011;14820;48.682;8.890;2023-03-16T07:47:42;14.75;;;9.85;;
26223;SDS011;14820;48.682;8.890;2023-03-16T07:50:10;15.40;;;10.15;;
26223;SDS011;14820;48.682;8.890;2023-03-16T07:52:37;15.10;;;10.25;;
26223;SDS011;14820;48.682;8.890;2023-03-16T07:55:03;15.80;;;9.93;;
26223;SDS011;14820;48.682;8.890;2023-03-16T07:57:29;17.23;;;10.30;;
26223;SDS011;14820;48.682;8.890;2023-03-16T07:59:55;14.70;;;9.63;;
26223;SDS011;14820;48.682;8.890;2023-03-16T08:02:21;16.23;;;9.30;;
26223;SDS011;14820;48.682;8.890;2023-03-16T08:04:47;12.63;;;9.02;;
26223;SDS011;14820;48.682;8.890;2023-03-16T08:07:14;14.43;;;10.25;;
26223;SDS011;14820;48.682;8.890;2023-03-16T08:09:40;13.82;;;8.52;;
26223;SDS011;14820;48.682;8.890;2023-03-16T08:12:06;12.48;;;9.02;;
26223;SDS011;14820;48.682;8.890;2023-03-16T08:14:33;15.95;;;9.23;;
26223;SDS011;14820;48.682;8.890;2023-03-16T08:17:00;12.65;;;8.35;;
26223;SDS011;14820;48.682;8.890;2023-03-16T08:19:26;12.50;;;7.80;;
26223;SDS011;14820;48.682;8.890;2023-03-16T08:21:52;10.85;;;7.32;;
26223;SDS011;14820;48.682;8.890;2023-03-16T08:24:18;11.73;;;7.70;;
26223;SDS011;14820;48.682;8.890;2023-03-16T08:26:44;12.65;;;7.72;;
26223;SDS011;14820;48.682;8.890;2023-03-16T08:29:11;13.40;;;8.52;;
26223;SDS011;14820;48.682;8.890;2023-03-16T08:31:37;15.40;;;8.93;;
26223;SDS011;14820;48.682;8.890;2023-03-16T08:34:03;12.07;;;8.10;;
26223;SDS011;14820;48.682;8.890;2023-03-16T08:36:30;12.80;;;7.45;;
26223;SDS011;14820;48.682;8.890;2023-03-16T08:38:57;16.10;;;9.55;;
26223;SDS011;14820;48.682;8.890;2023-03-16T08:41:24;13.05;;;8.15;;
26223;SDS011;14820;48.682;8.890;2023-03-16T08:43:50;11.35;;;6.80;;
26223;SDS011;14820;48.682;8.890;2023-03-16T08:46:16;12.00;;;7.00;;
26223;SDS011;14820;48.682;8.890;2023-03-16T08:48:41;9.93;;;6.03;;
26223;SDS011;14820;48.682;8.890;2023-03-16T08:51:08;9.80;;;6.57;;
26223;SDS011;14820;48.682;8.890;2023-03-16T08:53:35;13.07;;;7.40;;
26223;SDS011;14820;48.682;8.890;2023-03-16T08:56:04;10.05;;;5.82;;
26223;SDS011;14820;48.682;8.890;2023-03-16T08:58:32;8.68;;;5.60;;
26223;SDS011;14820;48.682;8.890;2023-03-16T09:00:59;9.13;;;5.93;;
26223;SDS011;14820;48.682;8.890;2023-03-16T09:03:26;9.27;;;5.97;;
26223;SDS011;14820;48.682;8.890;2023-03-16T09:05:59;9.05;;;5.60;;
26223;SDS011;14820;48.682;8.890;2023-03-16T09:08:26;11.45;;;6.40;;
26223;SDS011;14820;48.682;8.890;2023-03-16T09:11:03;10.88;;;6.28;;
26223;SDS011;14820;48.682;8.890;2023-03-16T09:13:35;17.23;;;6.63;;
26223;SDS011;14820;48.682;8.890;2023-03-16T09:16:05;8.35;;;5.95;;
26223;SDS011;14820;48.682;8.890;2023-03-16T09:18:35;8.27;;;5.55;;
26223;SDS011;14820;48.682;8.890;2023-03-16T09:21:02;10.38;;;5.85;;
26223;SDS011;14820;48.682;8.890;2023-03-16T09:23:28;9.23;;;5.43;;
26223;SDS011;14820;48.682;8.890;2023-03-16T09:25:58;6.70;;;4.88;;
26223;SDS011;14820;48.682;8.890;2023-03-16T09:28:27;7.05;;;4.90;;
26223;SDS011;14820;48.682;8.890;2023-03-16T09:30:56;6.75;;;4.90;;
26223;SDS011;14820;48.682;8.890;2023-03-16T09:33:23;10.00;;;4.88;;
26223;SDS011;14820;48.682;8.890;2023-03-16T09:35:50;8.00;;;4.40;;
26223;SDS011;14820;48.682;8.890;2023-03-16T09:38:18;6.18;;;4.18;;
26223;SDS011;14820;48.682;8.890;2023-03-16T09:40:47;11.63;;;5.88;;
26223;SDS011;14820;48.682;8.890;2023-03-16T09:43:36;9.10;;;4.40;;
26223;SDS011;14820;48.682;8.890;2023-03-16T09:49:00;5.93;;;3.80;;
26223;SDS011;14820;48.682;8.890;2023-03-16T09:53:57;5.75;;;3.13;;
26223;SDS011;14820;48.682;8.890;2023-03-16T09:56:32;5.55;;;2.80;;
26223;SDS011;14820;48.682;8.890;2023-03-16T09:59:00;3.53;;;2.67;;
26223;SDS011;14820;48.682;8.890;2023-03-16T10:04:11;4.05;;;2.67;;
26223;SDS011;14820;48.682;8.890;2023-03-16T10:07:03;4.72;;;2.72;;
26223;SDS011;14820;48.682;8.890;2023-03-16T10:09:36;3.42;;;2.35;;
26223;SDS011;14820;48.682;8.890;2023-03-16T10:12:13;7.22;;;4.30;;
26223;SDS011;14820;48.682;8.890;2023-03-16T10:17:12;4.93;;;3.58;;
26223;SDS011;14820;48.682;8.890;2023-03-16T10:22:22;7.38;;;3.30;;
26223;SDS011;14820;48.682;8.890;2023-03-16T10:27:39;4.88;;;3.28;;
26223;SDS011;14820;48.682;8.890;2023-03-16T10:32:46;4.28;;;2.40;;
26223;SDS011;14820;48.682;8.890;2023-03-16T10:35:24;3.90;;;2.40;;
26223;SDS011;14820;48.682;8.890;2023-03-16T10:41:30;3.38;;;2.10;;
26223;SDS011;14820;48.682;8.890;2023-03-16T10:44:02;4.40;;;2.00;;
26223;SDS011;14820;48.682;8.890;2023-03-16T10:46:39;2.90;;;1.92;;
26223;SDS011;14820;48.682;8.890;2023-03-16T10:49:25;3.42;;;1.70;;
26223;SDS011;14820;48.682;8.890;2023-03-16T10:51:56;3.90;;;1.67;;
26223;SDS011;14820;48.682;8.890;2023-03-16T10:54:31;2.85;;;1.83;;
26223;SDS011;14820;48.682;8.890;2023-03-16T10:57:42;11.77;;;4.55;;
26223;SDS011;14820;48.682;8.890;2023-03-16T11:00:20;2.60;;;1.80;;
26223;SDS011;14820;48.682;8.890;2023-03-16T11:02:51;3.97;;;1.73;;
26223;SDS011;14820;48.682;8.890;2023-03-16T11:07:56;5.13;;;1.85;;
26223;SDS011;14820;48.682;8.890;2023-03-16T11:10:31;2.95;;;1.63;;
26223;SDS011;14820;48.682;8.890;2023-03-16T11:13:18;4.45;;;1.70;;
26223;SDS011;14820;48.682;8.890;2023-03-16T11:15:48;3.83;;;1.70;;
26223;SDS011;14820;48.682;8.890;2023-03-16T11:18:58;3.25;;;1.60;;
26223;SDS011;14820;48.682;8.890;2023-03-16T11:21:36;3.00;;;1.65;;
26223;SDS011;14820;48.682;8.890;2023-03-16T11:24:33;2.83;;;1.50;;
26223;SDS011;14820;48.682;8.890;2023-03-16T11:32:37;4.50;;;1.30;;
26223;SDS011;14820;48.682;8.890;2023-03-16T11:35:12;1.77;;;1.42;;
26223;SDS011;14820;48.682;8.890;2023-03-16T11:40:23;2.45;;;1.35;;
26223;SDS011;14820;48.682;8.890;2023-03-16T11:46:40;4.18;;;1.45;;
26223;SDS011;14820;48.682;8.890;2023-03-16T12:11:36;4.20;;;1.77;;
26223;SDS011;14820;48.682;8.890;2023-03-16T12:16:51;3.15;;;1.90;;
26223;SDS011;14820;48.682;8.890;2023-03-16T12:20:01;3.35;;;1.50;;
26223;SDS011;14820;48.682;8.890;2023-03-16T12:24:40;2.63;;;1.40;;
26223;SDS011;14820;48.682;8.890;2023-03-16T12:27:10;4.63;;;1.55;;
26223;SDS011;14820;48.682;8.890;2023-03-16T12:29:40;3.50;;;1.83;;
26223;SDS011;14820;48.682;8.890;2023-03-16T12:34:39;2.53;;;1.23;;
26223;SDS011;14820;48.682;8.890;2023-03-16T12:37:16;3.17;;;1.38;;
26223;SDS011;14820;48.682;8.890;2023-03-16T12:40:18;4.40;;;1.60;;
26223;SDS011;14820;48.682;8.890;2023-03-16T12:43:14;6.40;;;1.90;;
26223;SDS011;14820;48.682;8.890;2023-03-16T12:46:11;2.20;;;1.30;;
26223;SDS011;14820;48.682;8.890;2023-03-16T12:48:57;5.38;;;1.60;;
26223;SDS011;14820;48.682;8.890;2023-03-16T12:51:38;4.60;;;1.75;;
26223;SDS011;14820;48.682;8.890;2023-03-16T12:54:05;2.60;;;1.27;;
26223;SDS011;14820;48.682;8.890;2023-03-16T12:56:45;2.50;;;1.30;;
26223;SDS011;14820;48.682;8.890;2023-03-16T12:59:16;2.85;;;1.27;;
26223;SDS011;14820;48.682;8.890;2023-03-16T13:01:43;2.67;;;1.40;;
26223;SDS011;14820;48.682;8.890;2023-03-16T13:04:14;4.15;;;1.40;;
26223;SDS011;14820;48.682;8.890;2023-03-16T13:06:59;2.30;;;1.30;;
26223;SDS011;14820;48.682;8.890;2023-03-16T13:11:53;2.70;;;1.40;;
26223;SDS011;14820;48.682;8.890;2023-03-16T13:14:38;3.17;;;1.60;;
26223;SDS011;14820;48.682;8.890;2023-03-16T13:19:39;3.50;;;1.52;;
26223;SDS011;14820;48.682;8.890;2023-03-16T13:24:50;3.92;;;1.50;;
26223;SDS011;14820;48.682;8.890;2023-03-16T13:27:22;3.53;;;1.52;;
26223;SDS011;14820;48.682;8.890;2023-03-16T13:30:11;3.03;;;1.40;;
26223;SDS011;14820;48.682;8.890;2023-03-16T13:32:41;2.67;;;1.52;;
26223;SDS011;14820;48.682;8.890;2023-03-16T13:35:06;1.73;;;1.40;;
26223;SDS011;14820;48.682;8.890;2023-03-16T13:37:37;3.88;;;1.50;;
26223;SDS011;14820;48.682;8.890;2023-03-16T13:40:16;2.40;;;1.30;;
26223;SDS011;14820;48.682;8.890;2023-03-16T13:42:48;2.88;;;1.13;;
26223;SDS011;14820;48.682;8.890;2023-03-16T13:45:21;4.85;;;2.00;;
26223;SDS011;14820;48.682;8.890;2023-03-16T13:48:03;2.58;;;1.17;;
26223;SDS011;14820;48.682;8.890;2023-03-16T13:50:33;2.40;;;1.52;;
26223;SDS011;14820;48.682;8.890;2023-03-16T13:53:04;3.47;;;1.27;;
26223;SDS011;14820;48.682;8.890;2023-03-16T13:55:38;4.15;;;1.52;;
26223;SDS011;14820;48.682;8.890;2023-03-16T13:58:17;3.03;;;1.55;;
26223;SDS011;14820;48.682;8.890;2023-03-16T14:00:46;3.70;;;1.30;;
26223;SDS011;14820;48.682;8.890;2023-03-16T14:03:14;2.28;;;1.40;;
26223;SDS011;14820;48.682;8.890;2023-03-16T14:05:45;2.28;;;1.50;;
26223;SDS011;14820;48.682;8.890;2023-03-16T14:08:21;2.55;;;1.48;;
26223;SDS011;14820;48.682;8.890;2023-03-16T14:10:50;1.90;;;1.23;;
26223;SDS011;14820;48.682;8.890;2023-03-16T14:16:07;3.08;;;1.33;;
26223;SDS011;14820;48.682;8.890;2023-03-16T14:18:50;3.63;;;1.30;;
26223;SDS011;14820;48.682;8.890;2023-03-16T14:21:21;2.15;;;1.30;;
26223;SDS011;14820;48.682;8.890;2023-03-16T14:23:57;3.63;;;1.38;;
26223;SDS011;14820;48.682;8.890;2023-03-16T14:26:26;2.78;;;1.48;;
26223;SDS011;14820;48.682;8.890;2023-03-16T14:31:51;1.67;;;1.42;;
26223;SDS011;14820;48.682;8.890;2023-03-16T14:34:33;1.95;;;1.30;;
26223;SDS011;14820;48.682;8.890;2023-03-16T14:37:08;2.13;;;1.30;;
26223;SDS011;14820;48.682;8.890;2023-03-16T14:39:41;1.77;;;1.25;;
26223;SDS011;14820;48.682;8.890;2023-03-16T14:44:53;1.50;;;1.30;;
26223;SDS011;14820;48.682;8.890;2023-03-16T14:47:21;2.38;;;1.30;;
26223;SDS011;14820;48.682;8.890;2023-03-16T14:49:50;3.70;;;1.58;;
26223;SDS011;14820;48.682;8.890;2023-03-16T14:52:35;2.85;;;1.67;;
26223;SDS011;14820;48.682;8.890;2023-03-16T14:55:04;3.47;;;1.48;;
26223;SDS011;14820;48.682;8.890;2023-03-16T14:57:35;2.60;;;1.50;;
26223;SDS011;14820;48.682;8.890;2023-03-16T15:00:03;2.97;;;1.58;;
26223;SDS011;14820;48.682;8.890;2023-03-16T15:02:32;2.80;;;1.40;;
26223;SDS011;14820;48.682;8.890;2023-03-16T15:05:00;3.33;;;1.52;;
26223;SDS011;14820;48.682;8.890;2023-03-16T15:07:34;2.10;;;1.40;;
26223;SDS011;14820;48.682;8.890;2023-03-16T15:10:12;4.80;;;2.00;;
26223;SDS011;14820;48.682;8.890;2023-03-16T15:12:48;2.55;;;1.48;;
26223;SDS011;14820;48.682;8.890;2023-03-16T15:15:30;3.50;;;1.60;;
26223;SDS011;14820;48.682;8.890;2023-03-16T15:17:56;2.78;;;1.85;;
26223;SDS011;14820;48.682;8.890;2023-03-16T15:20:30;2.42;;;1.70;;
26223;SDS011;14820;48.682;8.890;2023-03-16T15:22:59;2.72;;;1.58;;
26223;SDS011;14820;48.682;8.890;2023-03-16T15:25:34;5.97;;;1.80;;
26223;SDS011;14820;48.682;8.890;2023-03-16T15:30:28;3.65;;;1.50;;
26223;SDS011;14820;48.682;8.890;2023-03-16T15:32:54;3.78;;;1.20;;
26223;SDS011;14820;48.682;8.890;2023-03-16T15:35:20;2.35;;;1.30;;
26223;SDS011;14820;48.682;8.890;2023-03-16T15:37:49;2.38;;;1.25;;
26223;SDS011;14820;48.682;8.890;2023-03-16T15:42:51;4.25;;;2.20;;
26223;SDS011;14820;48.682;8.890;2023-03-16T15:45:19;5.90;;;2.30;;
26223;SDS011;14820;48.682;8.890;2023-03-16T15:47:49;2.50;;;1.35;;
26223;SDS011;14820;48.682;8.890;2023-03-16T15:50:18;9.20;;;3.25;;
26223;SDS011;14820;48.682;8.890;2023-03-16T15:52:46;4.30;;;2.10;;
26223;SDS011;14820;48.682;8.890;2023-03-16T15:55:20;3.45;;;2.20;;
26223;SDS011;14820;48.682;8.890;2023-03-16T15:57:50;19.67;;;13.25;;
26223;SDS011;14820;48.682;8.890;2023-03-16T16:00:25;37.47;;;23.17;;
26223;SDS011;14820;48.682;8.890;2023-03-16T16:02:57;9.63;;;4.38;;
26223;SDS011;14820;48.682;8.890;2023-03-16T16:05:24;5.10;;;2.65;;
26223;SDS011;14820;48.682;8.890;2023-03-16T16:07:50;3.35;;;1.90;;
26223;SDS011;14820;48.682;8.890;2023-03-16T16:10:16;3.20;;;1.88;;
26223;SDS011;14820;48.682;8.890;2023-03-16T16:12:42;2.45;;;1.92;;
26223;SDS011;14820;48.682;8.890;2023-03-16T16:15:28;3.92;;;2.00;;
26223;SDS011;14820;48.682;8.890;2023-03-16T16:17:58;4.85;;;2.10;;
26223;SDS011;14820;48.682;8.890;2023-03-16T16:20:28;3.72;;;2.20;;
26223;SDS011;14820;48.682;8.890;2023-03-16T16:22:59;2.33;;;1.60;;
26223;SDS011;14820;48.682;8.890;2023-03-16T16:25:27;4.47;;;1.77;;
26223;SDS011;14820;48.682;8.890;2023-03-16T16:28:01;3.65;;;2.10;;
26223;SDS011;14820;48.682;8.890;2023-03-16T16:30:31;3.92;;;2.60;;